• Join FlightAware (Why Join?)
  • Login
  • US Flag 
02:07AM EDT


 

Airport Tracker/Info


-or-


 

Live Flight TrackerFlight Track Log ✈ ANT508 ✈ 27-Aug-2013 ✈ CYEG - CYXY

Flight Track Log - Related Links

Times and Time Zones

All times are in EDT time to prevent confusion due to time zone crossing. See the ANT508 flight status page for this flight to view local times or setup timezone preferences in your user account.

Time Position Orientation Groundspeed Altitude Reporting Facility
EDT Latitude Longitude Course Direction KTS MPH feet Rate Location/Type
04:36PM 53.2500 -113.5667 310° West 160 184 3,500  Level Edmonton Center
04:37PM 53.2167 -113.5167 138° Southeast 230 265 5,600 2,280 Climbing Edmonton Center
04:38PM 53.1667 -113.5333 191° South 230 265 8,100 2,400 Climbing Edmonton Center
04:39PM 53.2000 -113.6167 304° West 270 311 10,400 2,100 Climbing Edmonton Center
04:40PM 53.2500 -113.7500 302° West 330 380 12,300 2,640 Climbing Edmonton Center
04:41PM 53.6528 -114.5056 310° West  Level FlightAware Approximate
04:41PM 53.3000 -113.8667 306° West 330 380 15,700  Level Edmonton Center
04:42PM 53.3500 -114.0000 302° West 340 391 18,200 2,460 Climbing Edmonton Center
04:43PM 53.4167 -114.1500 307° West 370 426 20,700 2,280 Climbing Edmonton Center
04:44PM 53.5167 -114.2000 343° North 410 472 22,800 2,040 Climbing Edmonton Center
04:45PM 53.6333 -114.2667 341° North 430 495 24,800 1,920 Climbing Edmonton Center
04:46PM 53.7167 -114.3833 320° Northwest 410 472 26,700 1,920 Climbing Edmonton Center
04:47PM 53.7833 -114.5500 304° West 410 472 28,700 1,980 Climbing Edmonton Center
04:48PM 53.8500 -114.6833 310° West 420 483 30,700 2,100 Climbing Edmonton Center
04:49PM 53.9333 -114.8500 310° West 400 460 33,000 1,800 Climbing Edmonton Center
04:50PM 54.0000 -114.9833 310° West 390 449 34,400 1,380 Climbing Edmonton Center
04:51PM 54.0667 -115.1500 304° West 390 449 35,800 780 Climbing Edmonton Center
04:52PM 54.1500 -115.2833 317° Northwest 390 449 36,000 60 Climbing Edmonton Center
04:53PM 54.2000 -115.4167 303° West 400 460 36,000  Level Edmonton Center
04:54PM 54.2833 -115.5833 311° West 400 460 36,000  Level Edmonton Center
04:55PM 54.3500 -115.7500 305° West 400 460 36,000  Level Edmonton Center
04:56PM 54.4333 -115.8833 317° Northwest 400 460 36,000  Level Edmonton Center
04:57PM 54.4833 -116.0500 297° West 410 472 36,000  Level Edmonton Center
04:58PM 54.5500 -116.1833 311° West 410 472 36,000  Level Edmonton Center
04:59PM 54.6500 -116.3667 313° West 410 472 36,000  Level Edmonton Center
05:00PM 54.7000 -116.5000 303° West 410 472 36,000  Level Edmonton Center
05:01PM 54.7833 -116.6667 311° West 400 460 36,000  Level Edmonton Center
05:02PM 54.8333 -116.8000 303° West 400 460 36,000  Level Edmonton Center
05:03PM 54.9167 -116.9833 308° West 400 460 36,000  Level Edmonton Center
05:04PM 54.9833 -117.1167 311° West 400 460 36,000  Level Edmonton Center
05:05PM 55.0667 -117.2833 311° West 400 460 36,000  Level Edmonton Center
05:06PM 55.1167 -117.4333 300° West 400 460 36,000  Level Edmonton Center
05:07PM 55.1833 -117.6000 305° West 400 460 36,000  Level Edmonton Center
05:08PM 55.2500 -117.7500 308° West 400 460 36,000  Level Edmonton Center
05:09PM 55.3167 -117.9167 305° West 400 460 36,000  Level Edmonton Center
05:10PM 55.4000 -118.0667 314° West 400 460 36,000  Level Edmonton Center
05:11PM 55.4667 -118.2333 305° West 400 460 36,000  Level Edmonton Center
05:12PM 55.5333 -118.3833 308° West 400 460 36,000  Level Edmonton Center
05:13PM 55.6000 -118.5667 303° West 400 460 36,000  Level Edmonton Center
05:14PM 55.6667 -118.7000 312° West 400 460 36,000  Level Edmonton Center
05:15PM 55.7333 -118.8833 303° West 410 472 36,000  Level Edmonton Center
05:16PM 55.8000 -119.0333 308° West 410 472 36,000  Level Edmonton Center
05:17PM 55.8667 -119.2167 303° West 400 460 36,000  Level Edmonton Center
05:18PM 55.9333 -119.3667 308° West 400 460 36,000  Level Edmonton Center
05:19PM 56.0000 -119.5333 306° West 400 460 36,000  Level Edmonton Center
05:21PM 56.1333 -119.8667 306° West 400 460 36,000  Level Edmonton Center
05:22PM 56.2000 -120.0167 309° West 400 460 36,000  Level Edmonton Center
05:23PM 56.2500 -120.2000 296° West 400 460 36,000  Level Edmonton Center
05:24PM 56.3167 -120.3500 309° West 400 460 36,000  Level Edmonton Center
05:25PM 56.3833 -120.5333 303° West 400 460 36,000  Level Edmonton Center
05:26PM 56.4500 -120.7000 306° West 400 460 36,000  Level Edmonton Center
05:27PM 56.5167 -120.8500 309° West 400 460 36,000  Level Edmonton Center
05:28PM 56.5667 -121.0167 299° West 390 449 36,000  Level Edmonton Center
05:29PM 56.6333 -121.1833 306° West 400 460 36,000  Level Edmonton Center
05:30PM 56.7000 -121.3667 304° West 400 460 36,000  Level Edmonton Center
05:31PM 56.7667 -121.5167 309° West 410 472 36,000  Level Edmonton Center
05:32PM 56.8167 -121.7167 295° West 400 460 36,000  Level Edmonton Center
05:33PM 56.8833 -121.8667 309° West 410 472 36,000  Level Edmonton Center
05:34PM 56.9667 -122.0667 307° West 400 460 36,000  Level Edmonton Center
05:35PM 57.0167 -122.2167 302° West 410 472 36,000  Level Edmonton Center
05:36PM 57.0833 -122.4167 302° West 400 460 36,000  Level Edmonton Center
05:37PM 57.1333 -122.5667 302° West 400 460 36,000  Level Edmonton Center
05:38PM 57.2167 -122.7667 308° West 410 472 36,000  Level Edmonton Center
05:39PM 57.2667 -122.9167 302° West 410 472 36,000  Level Edmonton Center
05:40PM 57.3333 -123.1167 302° West 410 472 36,000  Level Edmonton Center
05:41PM 57.4000 -123.2833 307° West 410 472 36,000  Level Edmonton Center
05:42PM 57.4500 -123.4667 297° West 410 472 36,000  Level Edmonton Center
05:43PM 57.5167 -123.6667 302° West 410 472 36,000  Level Edmonton Center
05:44PM 57.5667 -123.8333 299° West 410 472 36,000  Level Edmonton Center
05:45PM 57.6333 -124.0167 304° West 410 472 36,000  Level Edmonton Center
05:46PM 57.7000 -124.1833 307° West 410 472 36,000  Level Edmonton Center
05:47PM 57.7500 -124.3833 295° West 410 472 36,000  Level Edmonton Center
05:48PM 57.8333 -124.5667 311° West 410 472 36,000  Level Edmonton Center
05:50PM 57.9440 -124.9084 301° West  Level FlightAware Approximate
05:57PM 58.3238 -126.1209 301° West  Level FlightAware Approximate
05:58PM 58.3772 -126.2963 300° West  Level FlightAware Approximate
05:59PM 58.4301 -126.4723 300° West  Level FlightAware Approximate
06:00PM 58.4827 -126.6489 300° West  Level FlightAware Approximate
06:01PM 58.5352 -126.8260 300° West  Level FlightAware Approximate
06:02PM 58.5873 -127.0037 299° West  Level FlightAware Approximate
06:03PM 58.6393 -127.1818 299° West  Level FlightAware Approximate
06:04PM 58.6909 -127.3605 299° West  Level FlightAware Approximate
06:05PM 58.7427 -127.5394 299° West  Level FlightAware Approximate
06:06PM 58.7945 -127.7185 299° West  Level FlightAware Approximate
06:07PM 58.8461 -127.8982 299° West  Level FlightAware Approximate
06:08PM 58.8974 -128.0783 299° West  Level FlightAware Approximate
06:09PM 58.9484 -128.2590 299° West  Level FlightAware Approximate
06:10PM 58.9992 -128.4403 299° West  Level FlightAware Approximate
06:11PM 59.0498 -128.6220 298° West  Level FlightAware Approximate
06:12PM 59.1001 -128.8043 298° West  Level FlightAware Approximate
06:13PM 59.1501 -128.9872 298° West  Level FlightAware Approximate
06:14PM 59.1999 -129.1705 298° West  Level FlightAware Approximate
06:15PM 59.2495 -129.3545 298° West  Level FlightAware Approximate
06:16PM 59.2987 -129.5389 298° West  Level FlightAware Approximate
06:17PM 59.3477 -129.7239 298° West  Level FlightAware Approximate
06:18PM 59.3965 -129.9094 297° West  Level FlightAware Approximate
06:19PM 59.4450 -130.0954 297° West  Level FlightAware Approximate
06:20PM 59.4932 -130.2820 297° West  Level FlightAware Approximate
06:21PM 59.5411 -130.4691 297° West  Level FlightAware Approximate
06:22PM 59.5888 -130.6567 297° West  Level FlightAware Approximate
06:23PM 59.6362 -130.8449 297° West  Level FlightAware Approximate
06:24PM 59.6846 -131.0323 298° West  Level FlightAware Approximate
06:25PM 59.7328 -131.2201 295° West  Level FlightAware Approximate
06:26PM 59.7769 -131.4122 295° West  Level FlightAware Approximate
06:27PM 59.8207 -131.6048 294° West  Level FlightAware Approximate
06:28PM 59.8642 -131.7979 294° West  Level FlightAware Approximate
06:29PM 59.9099 -131.9893 297° West  Level FlightAware Approximate
06:30PM 59.9575 -132.1791 297° West  Level FlightAware Approximate
06:31PM 60.0049 -132.3694 297° West  Level FlightAware Approximate
06:32PM 60.0523 -132.5599 295° West  Level FlightAware Approximate
06:33PM 60.0964 -132.7539 295° West  Level FlightAware Approximate
06:34PM 60.1402 -132.9484 294° West  Level FlightAware Approximate
06:35PM 60.1837 -133.1434 294° West  Level FlightAware Approximate
06:36PM 60.2270 -133.3389 294° West  Level FlightAware Approximate
06:37PM 60.2699 -133.5349 294° West  Level FlightAware Approximate
06:38PM 60.3126 -133.7314 294° West  Level FlightAware Approximate
06:39PM 60.3549 -133.9285 294° West  Level FlightAware Approximate
06:40PM 60.3969 -134.1262 293° West  Level FlightAware Approximate
06:41PM 60.4385 -134.3244 293° West  Level FlightAware Approximate
06:42PM 60.4800 -134.5230 293° West  Level FlightAware Approximate
06:43PM 60.5213 -134.7220 293° West  Level FlightAware Approximate
06:44PM 60.5632 -134.9207 293° West  Level FlightAware Approximate
06:45PM 60.6029 -135.1196 334° Northwest  Level FlightAware Approximate
06:46PM 60.7000 -135.0667 20° North  Level FlightAware Approximate
06:47PM 60.7095 -135.0673 20° North  Level Estimated
06:48PM 60.7095 -135.0673 20° North  Level Estimated
06:49PM 60.7095 -135.0673 20° North  Level Estimated
06:50PM 60.7095 -135.0673 20° North  Level Estimated
06:51PM 60.7095 -135.0673 20° North  Level Estimated
06:52PM 60.7095 -135.0673 20° North  Level Estimated
06:53PM 60.7095 -135.0673 20° North  Level Estimated
06:54PM 60.7095 -135.0673 20° North  Level Estimated